Hartsfield-Jackson Atlanta International

KATL · Georgia, United States

METAR history KATL · Hartsfield-Jackson Atlanta International

Below you see METARs of the last few days. Select a year to browse through older METARs, from the year 2007 onwards.

April 24, 2024

Time Code Weather Temp. Visibility Ceiling Wind METAR/SPECI
18:52
V
22 °C 10 mi 9,000 ft 300° 300° 7 kt METAR KATL 242252Z 30007KT 10SM FEW040 SCT055 BKN090 22/14 A3008 RMK AO2 SLP180 TCU DSNT SE-SW T02220139
17:52
V
23 °C 10 mi 4,000 ft 330° 330° 11 kt METAR KATL 242152Z 33011KT 10SM BKN040TCU BKN055 BKN070 23/13 A3007 RMK AO2 RAB04E19 SLP179 SHRA SE-SW TCU NE-SE-SW P0000 T02280133
16:52
V
23 °C 10 mi 7,000 ft 270° 270° 7 kt METAR KATL 242052Z 27007KT 10SM SCT048 BKN070 23/13 A3006 RMK AO2 SLP176 MDT CU OHD-ALQDS T02280128 58016
15:52
V
23 °C 10 mi 4,600 ft 250° 250° 9 kt METAR KATL 241952Z 25009KT 10SM BKN046 BKN060 BKN075 23/13 A3008 RMK AO2 SLP181 MDT CU OHD-ALQDS T02330128
14:52
V
24 °C 10 mi - 260° 260° 9 - 16 kt METAR KATL 241852Z 26009G16KT 10SM FEW050 SCT070 24/13 A3010 RMK AO2 SLP187 T02390128
13:52
V
23 °C 10 mi - 250° 250° 10 - 17 kt METAR KATL 241752Z 25010G17KT 10SM FEW048 SCT070 23/12 A3011 RMK AO2 SLP192 T02280122 10228 20139 58006
12:52
V
21 °C 10 mi 7,000 ft 270° 270° 12 kt METAR KATL 241652Z 27012KT 10SM FEW038 BKN070 21/12 A3014 RMK AO2 SLP201 T02060117
11:52
V
19 °C 10 mi 6,500 ft 280° 280° 8 kt METAR KATL 241552Z 28008KT 10SM BKN065 19/12 A3014 RMK AO2 SLP203 T01940117
10:52
V
19 °C 10 mi 7,000 ft 270° 270° 9 kt METAR KATL 241452Z 27009KT 10SM BKN070 19/11 A3013 RMK AO2 SLP199 T01890106 53002
09:52
V
17 °C 10 mi 7,000 ft 260° 260° 9 kt METAR KATL 241352Z 26009KT 10SM BKN070 17/11 A3013 RMK AO2 SLP197 T01720106
08:52
V
16 °C 10 mi 6,500 ft 240° 240° 6 kt METAR KATL 241252Z 24006KT 10SM BKN065 16/11 A3013 RMK AO2 SLP197 T01560106 $
07:52
V
14 °C 10 mi - 240° 240° 7 kt METAR KATL 241152Z 24007KT 10SM SCT060 SCT250 14/09 A3012 RMK AO2 SLP196 T01390094 10139 20122 53007 $
06:52
V
13 °C 10 mi - 240° 240° 6 kt METAR KATL 241052Z 24006KT 10SM FEW070 FEW250 13/08 A3011 RMK AO2 SLP192 T01330083 $
05:52
V
13 °C 10 mi - 250° 250° 5 kt METAR KATL 240952Z 25005KT 10SM FEW250 13/08 A3010 RMK AO2 SLP189 T01280078 $
04:52
V
12 °C 10 mi - 230° 230° 5 kt METAR KATL 240852Z 23005KT 10SM CLR 12/07 A3010 RMK AO2 SLP189 T01220067 55005 $
03:52
V
13 °C 10 mi - 220° 220° 7 kt METAR KATL 240752Z 22007KT 10SM CLR 13/06 A3009 RMK AO2 SLP186 T01280061 $
02:52
V
13 °C 10 mi - 220° 220° 6 kt METAR KATL 240652Z 22006KT 10SM CLR 13/06 A3009 RMK AO2 SLP186 T01330061 $
01:52
V
14 °C 10 mi - 230° 230° 6 kt METAR KATL 240552Z 23006KT 10SM CLR 14/06 A3011 RMK AO2 SLP194 T01390056 10206 20139 58003
00:52
V
14 °C 10 mi - 220° 220° 6 kt METAR KATL 240452Z 22006KT 10SM FEW250 14/06 A3012 RMK AO2 SLP197 T01440056 402220078

April 23, 2024

Time Code Weather Temp. Visibility Ceiling Wind METAR/SPECI
23:52
V
16 °C 10 mi - 220° 220° 5 kt METAR KATL 240352Z 22005KT 10SM FEW250 16/06 A3012 RMK AO2 SLP197 T01560056
22:52
V
17 °C 10 mi - 210° 210° 4 kt METAR KATL 240252Z 21004KT 10SM SCT250 17/06 A3012 RMK AO2 SLP198 T01670061 53009
21:52
V
17 °C 10 mi - 220° 220° 5 kt METAR KATL 240152Z 22005KT 10SM SCT250 17/06 A3012 RMK AO2 SLP196 T01720061
20:52
V
18 °C 10 mi - 220° 220° 5 kt METAR KATL 240052Z 22005KT 10SM SCT250 18/06 A3010 RMK AO2 SLP191 T01830056
19:52
V
21 °C 10 mi 25,000 ft 210° 210° 7 kt METAR KATL 232352Z 21007KT 10SM BKN250 21/04 A3010 RMK AO2 SLP189 T02060044 10222 20200 56012
18:52
V
22 °C 10 mi - 220° 220° 7 - 17 kt METAR KATL 232252Z 22007G17KT 10SM SCT250 22/04 A3011 RMK AO2 SLP193 T02170044
17:52
V
22 °C 10 mi - 200° 200° 11 kt METAR KATL 232152Z 20011KT 10SM SCT250 22/05 A3012 RMK AO2 SLP197 T02170050
16:52
V
22 °C 10 mi - 200° 200° 11 - 19 kt METAR KATL 232052Z 20011G19KT 10SM SCT250 22/06 A3013 RMK AO2 SLP202 T02170056 58024
15:52
V
22 °C 10 mi - 210° 210° 11 - 18 kt METAR KATL 231952Z 21011G18KT 10SM SCT250 22/06 A3016 RMK AO2 SLP211 T02170056
14:52
V
21 °C 10 mi - 210° 210° 11 kt METAR KATL 231852Z 21011KT 10SM FEW250 21/07 A3018 RMK AO2 SLP219 T02110067
13:52
V
21 °C 10 mi - 250° 250° 7 kt METAR KATL 231752Z COR 25007KT 10SM FEW055 FEW250 21/07 A3021 RMK AO2 SLP227 T02060067 10206 20100 58013
12:52
V
19 °C 10 mi - 200° 200° 11 - 17 kt METAR KATL 231652Z 20011G17KT 10SM FEW250 19/07 A3023 RMK AO2 SLP234 T01940072
11:52
V
18 °C 10 mi - 220° 220° 11 - 17 kt METAR KATL 231552Z 22011G17KT 10SM FEW250 18/05 A3024 RMK AO2 SLP237 T01830050
10:52
V
17 °C 10 mi - 220° 220° 9 kt METAR KATL 231452Z 22009KT 10SM FEW250 17/06 A3025 RMK AO2 SLP240 T01670061 51009
09:52
V
15 °C 10 mi - 230° 230° 7 kt METAR KATL 231352Z 23007KT 10SM FEW250 15/07 A3024 RMK AO2 SLP239 T01500067
08:52
V
13 °C 10 mi - 220° 220° 7 kt METAR KATL 231252Z 22007KT 10SM FEW250 13/05 A3024 RMK AO2 SLP237 T01280050
07:52
V
10 °C 10 mi - 360° 360° 0 kt METAR KATL 231152Z 00000KT 10SM FEW250 10/04 A3022 RMK AO2 SLP232 T01000044 10111 20078 53014 $
06:52
V
8 °C 10 mi - 360° 360° 0 kt METAR KATL 231052Z 00000KT 10SM FEW250 08/03 A3020 RMK AO2 SLP224 T00830033
05:52
V
8 °C 10 mi - 240° 240° 3 kt METAR KATL 230952Z 24003KT 10SM FEW250 08/04 A3018 RMK AO2 SLP218 T00830039 $
04:52
V
8 °C 10 mi - 360° 360° 0 kt METAR KATL 230852Z 00000KT 10SM FEW250 08/04 A3018 RMK AO2 SLP217 T00830044 53002 $
03:52
V
9 °C 10 mi - 360° 360° 0 kt METAR KATL 230752Z 00000KT 10SM FEW250 09/04 A3017 RMK AO2 SLP215 T00940039 $
02:52
V
9 °C 10 mi - 280° 280° 3 kt METAR KATL 230652Z 28003KT 10SM FEW250 09/04 A3016 RMK AO2 SLP213 T00890039 $
01:52
V
10 °C 10 mi - 280° 280° 3 kt METAR KATL 230552Z 28003KT 10SM SCT250 10/04 A3017 RMK AO2 SLP216 T01000044 10172 20100 50002 $
00:52
V
11 °C 10 mi 25,000 ft 270° 270° 3 kt METAR KATL 230452Z 27003KT 10SM BKN250 11/06 A3018 RMK AO2 SLP217 T01060056 401940067 $

April 22, 2024

Time Code Weather Temp. Visibility Ceiling Wind METAR/SPECI
23:52
V
12 °C 10 mi - 360° 360° 0 kt METAR KATL 230352Z 00000KT 10SM FEW250 12/04 A3017 RMK AO2 SLP214 T01170044 $
22:52
V
13 °C 10 mi - 270° 270° 3 kt METAR KATL 230252Z 27003KT 10SM FEW250 13/06 A3016 RMK AO2 SLP213 T01280056 53012
21:52
V
14 °C 10 mi - 300° 300° 4 kt METAR KATL 230152Z 30004KT 10SM FEW250 14/03 A3015 RMK AO2 SLP208 T01440033
20:52
V
16 °C 10 mi - 310° 310° 6 kt METAR KATL 230052Z 31006KT 10SM FEW250 16/01 A3014 RMK AO2 SLP205 T01560011
19:52
V
17 °C 10 mi - 320° 320° 6 kt METAR KATL 222352Z 32006KT 10SM FEW250 17/01 A3013 RMK AO2 SLP202 T01720006 10194 20161 53002
18:52
V
19 °C 10 mi - 340° 340° 5 kt METAR KATL 222252Z 34005KT 10SM FEW250 19/01 A3012 RMK AO2 SLP200 T01940011
17:52
V
19 °C 10 mi - 340° 340° 7 kt METAR KATL 222152Z 34007KT 10SM CLR 19/02 A3012 RMK AO2 SLP200 T01940022
16:52
V
19 °C 10 mi - 350° 350° 6 kt METAR KATL 222052Z 35006KT 10SM FEW070 19/03 A3012 RMK AO2 SLP199 T01940033 58012
15:52
V
19 °C 10 mi - 340° 340° 7 kt METAR KATL 221952Z 34007KT 10SM FEW065 19/03 A3013 RMK AO2 SLP202 T01940028
14:52
V
18 °C 10 mi - 360° 360° 6 kt METAR KATL 221852Z 36006KT 10SM FEW060 18/04 A3015 RMK AO2 SLP209 T01780039
13:52
V
16 °C 10 mi - 360° 360° 0 kt METAR KATL 221752Z 00000KT 10SM SCT055 16/03 A3016 RMK AO2 SLP212 T01610033 10167 20072 58007
12:52
V
16 °C 10 mi - 360° 360° 6 kt METAR KATL 221652Z COR 36006KT 10SM SCT050 16/03 A3018 RMK AO2 SLP217 T01610033
11:52
V
15 °C 10 mi - 070° 070° 7 kt METAR KATL 221552Z 07007KT 10SM FEW044 FEW065 15/03 A3019 RMK AO2 SLP222 T01500033
10:52
V
13 °C 10 mi - 080° 080° 5 kt METAR KATL 221452Z 08005KT 10SM FEW065 13/02 A3018 RMK AO2 SLP220 T01330022 51018
09:52
V
12 °C 10 mi - 030° 030° 6 kt METAR KATL 221352Z 03006KT 10SM FEW065 12/01 A3016 RMK AO2 SLP214 ACC DSNT E T01220011
08:52
V
9 °C 10 mi - 350° 350° 6 kt METAR KATL 221252Z 35006KT 10SM FEW065 FEW110 09/01 A3015 RMK AO2 SLP210 T00940011
07:52
V
7 °C 10 mi - 330° 330° 7 kt METAR KATL 221152Z 33007KT 10SM FEW065 FEW110 07/01 A3013 RMK AO2 SLP203 70037 T00720011 10094 20067 53020
06:52
V
7 °C 10 mi - 330° 330° 8 kt METAR KATL 221052Z 33008KT 10SM FEW110 07/02 A3010 RMK AO2 SLP194 T00670017
05:52
V
7 °C 10 mi - 330° 330° 9 kt METAR KATL 220952Z 33009KT 10SM FEW110 07/02 A3008 RMK AO2 SLP186 T00720017 $
04:52
V
8 °C 10 mi - 320° 320° 11 kt METAR KATL 220852Z 32011KT 10SM FEW110 08/02 A3007 RMK AO2 SLP182 T00780022 53002 /
03:52
V
9 °C 10 mi 9,500 ft 330° 330° 10 kt METAR KATL 220752Z 33010KT 10SM BKN095 BKN120 09/02 A3005 RMK AO2 SLP176 T00940022 $
02:52
V
9 °C 10 mi - 340° 340° 9 kt METAR KATL 220652Z 34009KT 10SM FEW100 SCT180 09/02 A3005 RMK AO2 SLP178 T00890022 $
01:52
V
9 °C 10 mi - 330° 330° 9 kt METAR KATL 220552Z 33009KT 10SM FEW180 09/02 A3006 RMK AO2 SLP180 T00940022 10133 20094 53002 $
Report a change